createdAt,value
2018-01-26T00:02:07.101Z,2.90
2018-01-26T00:04:33.348Z,2.80
2018-01-26T00:07:00.432Z,2.70
2018-01-26T00:09:26.653Z,2.70
2018-01-26T00:11:52.898Z,2.70
2018-01-26T00:14:19.134Z,2.80
2018-01-26T00:16:45.341Z,2.90
2018-01-26T00:19:11.592Z,2.80
2018-01-26T00:21:37.848Z,2.70
2018-01-26T00:24:04.097Z,2.70
2018-01-26T00:26:31.101Z,2.50
2018-01-26T00:28:57.400Z,2.50
2018-01-26T00:31:23.665Z,2.40
2018-01-26T00:33:49.921Z,2.30
2018-01-26T00:36:16.158Z,2.20
2018-01-26T00:38:42.380Z,2.10
2018-01-26T00:41:08.649Z,2.10
2018-01-26T00:43:34.888Z,2.10
2018-01-26T00:46:01.098Z,2.00
2018-01-26T00:48:28.097Z,1.80
2018-01-26T00:50:54.328Z,1.80
2018-01-26T00:53:20.548Z,1.80
2018-01-26T00:55:46.820Z,1.80
2018-01-26T00:58:13.075Z,1.80
2018-01-26T01:00:40.082Z,1.70
2018-01-26T01:03:06.343Z,1.70
2018-01-26T01:05:33.348Z,1.90
2018-01-26T01:07:59.590Z,1.90
2018-01-26T01:10:25.836Z,2.00
2018-01-26T01:12:52.081Z,2.00
2018-01-26T01:15:19.063Z,2.00
2018-01-26T01:17:45.388Z,1.90
2018-01-26T01:20:11.667Z,2.10
2018-01-26T01:22:37.884Z,2.00
2018-01-26T01:25:04.121Z,2.00
2018-01-26T01:27:30.365Z,1.90
2018-01-26T01:29:56.580Z,1.90
2018-01-26T01:32:22.818Z,1.90
2018-01-26T01:34:49.057Z,1.90
2018-01-26T01:37:15.269Z,1.90
2018-01-26T01:39:41.504Z,1.90
2018-01-26T01:42:07.802Z,1.90
2018-01-26T01:44:34.042Z,1.80
2018-01-26T01:47:00.296Z,1.80
2018-01-26T01:49:26.545Z,1.90
2018-01-26T01:51:52.813Z,1.90
2018-01-26T01:54:19.050Z,1.80
2018-01-26T01:56:45.268Z,1.90
2018-01-26T01:59:11.530Z,2.00
2018-01-26T02:01:37.754Z,1.90
2018-01-26T02:04:03.989Z,2.00
2018-01-26T02:06:30.785Z,1.80
2018-01-26T02:08:58.000Z,1.60
2018-01-26T02:11:24.227Z,1.50
2018-01-26T02:13:50.459Z,1.40
2018-01-26T02:16:17.477Z,1.20
2018-01-26T02:18:43.714Z,1.10
2018-01-26T02:21:09.967Z,1.20
2018-01-26T02:23:36.231Z,1.10
2018-01-26T02:26:03.200Z,1.00
2018-01-26T02:28:29.460Z,0.90
2018-01-26T02:30:55.667Z,0.80
2018-01-26T02:33:21.901Z,0.60
2018-01-26T02:35:48.130Z,0.50
2018-01-26T02:38:14.395Z,0.50
2018-01-26T02:40:40.697Z,0.40
2018-01-26T02:43:06.952Z,0.30
2018-01-26T02:45:33.220Z,0.30
2018-01-26T02:48:00.209Z,0.40
2018-01-26T02:50:26.436Z,0.30
2018-01-26T02:52:52.731Z,0.30
2018-01-26T02:55:18.989Z,0.30
2018-01-26T02:57:45.255Z,0.30
2018-01-26T03:00:11.525Z,0.20
2018-01-26T03:02:38.494Z,0.20
2018-01-26T03:05:04.740Z,0.10
2018-01-26T03:07:30.958Z,0.10
2018-01-26T03:09:57.229Z,0.20
2018-01-26T03:12:23.460Z,0.30
2018-01-26T03:14:49.723Z,0.30
2018-01-26T03:17:16.709Z,0.30
2018-01-26T03:19:42.959Z,0.20
2018-01-26T03:22:09.188Z,0.30
2018-01-26T03:24:35.404Z,0.30
2018-01-26T03:27:01.641Z,0.20
2018-01-26T03:29:27.901Z,0.20
2018-01-26T03:31:54.187Z,0.30
2018-01-26T03:34:20.453Z,0.30
2018-01-26T03:36:46.666Z,0.50
2018-01-26T03:39:12.900Z,0.50
2018-01-26T03:41:39.155Z,0.50
2018-01-26T03:44:05.389Z,0.40
2018-01-26T03:46:31.651Z,0.30
2018-01-26T03:48:57.867Z,0.30
2018-01-26T03:51:24.844Z,0.30
2018-01-26T03:53:51.092Z,0.30
2018-01-26T03:56:17.332Z,0.30
2018-01-26T03:58:43.589Z,0.40
2018-01-26T04:01:10.560Z,0.80
2018-01-26T04:03:36.907Z,0.80
2018-01-26T04:06:04.032Z,1.00
2018-01-26T04:08:31.012Z,1.20
2018-01-26T04:10:57.304Z,1.20
2018-01-26T04:13:23.629Z,1.30
2018-01-26T04:15:49.894Z,1.30
2018-01-26T04:18:16.144Z,1.30
2018-01-26T04:20:42.403Z,1.30
2018-01-26T04:23:08.657Z,1.30
2018-01-26T04:25:35.626Z,1.30
2018-01-26T04:28:01.990Z,1.30
2018-01-26T04:30:28.284Z,1.30
2018-01-26T04:32:55.246Z,1.20
2018-01-26T04:35:21.477Z,1.20
2018-01-26T04:37:47.692Z,1.20
2018-01-26T04:40:13.948Z,1.20
2018-01-26T04:42:40.297Z,1.20
2018-01-26T04:45:06.526Z,1.10
2018-01-26T04:47:32.816Z,1.00
2018-01-26T04:49:59.772Z,0.80
2018-01-26T04:52:26.075Z,0.80
2018-01-26T04:54:52.361Z,0.80
2018-01-26T04:57:18.579Z,0.70
2018-01-26T04:59:44.865Z,0.60
2018-01-26T05:02:11.174Z,0.70
2018-01-26T05:04:37.508Z,0.60
2018-01-26T05:07:06.573Z,0.30
2018-01-26T05:09:34.441Z,0.40
2018-01-26T05:12:05.412Z,0.30
2018-01-26T05:14:33.681Z,0.40
2018-01-26T05:19:56.469Z,0.10
2018-01-26T05:22:25.404Z,0.10
2018-01-26T05:24:53.508Z,0.20
2018-01-26T05:27:21.753Z,0.10
2018-01-26T05:29:49.820Z,0.10
2018-01-26T05:32:18.799Z,0.20
2018-01-26T05:34:49.753Z,0.10
2018-01-26T05:37:19.018Z,0.20
2018-01-26T05:39:47.177Z,0.10
2018-01-26T05:42:19.831Z,0.10
2018-01-26T05:44:50.576Z,0.10
2018-01-26T05:47:18.637Z,0.20
2018-01-26T05:49:46.583Z,0.20
2018-01-26T05:52:13.636Z,0.30
2018-01-26T05:54:40.610Z,0.40
2018-01-26T05:57:06.852Z,0.30
2018-01-26T05:59:33.112Z,0.30
2018-01-26T06:01:59.364Z,0.20
2018-01-26T06:04:26.337Z,0.20
2018-01-26T06:06:52.667Z,0.10
2018-01-26T06:09:18.896Z,0.20
2018-01-26T06:11:45.126Z,0.10
2018-01-26T06:16:44.300Z,0.00
2018-01-26T06:19:10.608Z,0.00
2018-01-26T06:21:36.869Z,0.00
2018-01-26T06:24:03.210Z,-0.10
2018-01-26T06:26:30.214Z,-0.10
2018-01-26T06:28:56.491Z,-0.20
2018-01-26T06:31:23.536Z,-0.20
2018-01-26T06:33:49.800Z,-0.30
2018-01-26T06:36:16.093Z,-0.20
2018-01-26T06:38:42.369Z,-0.30
2018-01-26T06:41:08.710Z,-0.30
2018-01-26T06:43:34.952Z,-0.30
2018-01-26T06:46:01.325Z,-0.40
2018-01-26T06:48:27.669Z,-0.40
2018-01-26T06:50:54.623Z,-0.40
2018-01-26T06:53:21.646Z,-0.40
2018-01-26T06:55:47.976Z,-0.40
2018-01-26T06:58:14.252Z,-0.40
2018-01-26T07:00:40.533Z,-0.40
2018-01-26T07:03:06.784Z,-0.40
2018-01-26T07:05:33.760Z,-0.40
2018-01-26T07:08:00.033Z,-0.40
2018-01-26T07:10:26.321Z,-0.40
2018-01-26T07:12:52.552Z,-0.40
2018-01-26T07:15:18.805Z,-0.40
2018-01-26T07:17:45.115Z,-0.30
2018-01-26T07:20:11.364Z,-0.30
2018-01-26T07:22:37.583Z,-0.20
2018-01-26T07:25:03.856Z,-0.10
2018-01-26T07:27:30.092Z,-0.10
2018-01-26T07:29:56.344Z,0.00
2018-01-26T07:32:23.332Z,0.10
2018-01-26T07:34:49.620Z,0.00
2018-01-26T07:37:15.868Z,0.10
2018-01-26T07:39:42.115Z,0.10
2018-01-26T07:42:08.380Z,0.10
2018-01-26T07:44:34.664Z,0.20
2018-01-26T07:47:00.935Z,0.20
2018-01-26T07:49:27.344Z,0.20
2018-01-26T07:51:53.728Z,0.30
2018-01-26T07:54:19.941Z,0.30
2018-01-26T07:56:46.201Z,0.30
2018-01-26T07:59:13.169Z,0.40
2018-01-26T08:01:39.413Z,0.40
2018-01-26T08:04:05.653Z,0.40
2018-01-26T08:06:31.928Z,0.50
2018-01-26T08:08:58.210Z,0.60
2018-01-26T08:11:24.485Z,0.60
2018-01-26T08:13:50.725Z,0.60
2018-01-26T08:16:17.732Z,0.70
2018-01-26T08:18:43.976Z,0.70
2018-01-26T08:21:10.224Z,0.80
2018-01-26T08:23:36.448Z,0.80
2018-01-26T08:26:02.694Z,0.90
2018-01-26T08:28:28.912Z,0.90
2018-01-26T08:30:55.172Z,1.00
2018-01-26T08:33:21.437Z,1.00
2018-01-26T08:35:47.760Z,1.00
2018-01-26T08:38:13.992Z,1.20
2018-01-26T08:40:40.227Z,1.10
2018-01-26T08:43:06.477Z,1.20
2018-01-26T08:45:32.780Z,1.40
2018-01-26T08:47:59.020Z,1.40
2018-01-26T08:50:25.256Z,1.40
2018-01-26T08:52:51.572Z,1.40
2018-01-26T08:55:20.677Z,1.50
2018-01-26T08:57:46.899Z,1.50
2018-01-26T09:00:13.167Z,1.50
2018-01-26T09:02:39.418Z,1.60
2018-01-26T09:05:06.435Z,1.60
2018-01-26T09:07:32.672Z,1.60
2018-01-26T09:09:58.890Z,1.40
2018-01-26T09:12:25.125Z,1.70
2018-01-26T09:14:58.352Z,1.70
2018-01-26T09:17:25.360Z,2.20
2018-01-26T09:19:51.603Z,2.10
2018-01-26T09:22:17.828Z,2.30
2018-01-26T09:24:44.072Z,2.10
2018-01-26T09:27:10.316Z,2.30
2018-01-26T09:29:36.570Z,2.50
2018-01-26T09:32:02.848Z,2.60
2018-01-26T09:34:29.068Z,2.60
2018-01-26T09:36:55.330Z,2.60
2018-01-26T09:39:22.293Z,2.50
2018-01-26T09:41:49.728Z,2.40
2018-01-26T09:44:15.976Z,2.40
2018-01-26T09:46:42.987Z,2.70
2018-01-26T09:49:09.232Z,2.60
2018-01-26T09:51:36.241Z,2.90
2018-01-26T09:54:02.501Z,2.90
2018-01-26T09:56:28.748Z,3.20
2018-01-26T09:58:54.974Z,3.10
2018-01-26T10:01:21.195Z,3.50
2018-01-26T10:03:47.416Z,3.50
2018-01-26T10:06:13.828Z,3.70
2018-01-26T10:08:40.093Z,3.90
2018-01-26T10:11:06.316Z,4.00
2018-01-26T10:13:32.746Z,4.30
2018-01-26T10:15:59.138Z,4.10
2018-01-26T10:18:25.573Z,3.80
2018-01-26T10:20:52.006Z,3.90
2018-01-26T10:23:18.441Z,4.00
2018-01-26T10:25:44.854Z,3.70
2018-01-26T10:28:12.038Z,3.80
2018-01-26T10:30:38.456Z,3.70
2018-01-26T10:33:04.692Z,3.60
2018-01-26T10:35:31.127Z,3.70
2018-01-26T10:37:57.520Z,3.80
2018-01-26T10:40:23.937Z,4.20
2018-01-26T10:42:50.362Z,4.30
2018-01-26T10:45:16.855Z,4.40
2018-01-26T10:47:44.093Z,4.70
2018-01-26T10:50:11.327Z,4.70
2018-01-26T10:52:37.754Z,4.70
2018-01-26T10:55:04.173Z,4.60
2018-01-26T10:57:30.609Z,4.60
2018-01-26T10:59:57.018Z,4.60
2018-01-26T11:02:23.427Z,4.70
2018-01-26T11:04:49.872Z,4.70
2018-01-26T11:07:16.285Z,4.70
2018-01-26T11:09:43.446Z,4.60
2018-01-26T11:12:10.574Z,4.60
2018-01-26T11:14:37.057Z,4.60
2018-01-26T11:17:03.665Z,4.80
2018-01-26T11:19:30.825Z,5.10
2018-01-26T11:21:58.024Z,5.30
2018-01-26T11:24:24.454Z,5.30
2018-01-26T11:26:50.866Z,5.30
2018-01-26T11:29:17.281Z,4.90
2018-01-26T11:31:43.690Z,4.90
2018-01-26T11:34:10.129Z,4.60
2018-01-26T11:36:36.549Z,4.70
2018-01-26T11:39:03.080Z,4.60
2018-01-26T11:41:29.493Z,4.60
2018-01-26T11:43:55.913Z,4.70
2018-01-26T11:46:22.314Z,4.50
2018-01-26T11:48:49.477Z,4.80
2018-01-26T11:51:16.662Z,4.90
2018-01-26T11:53:43.058Z,4.90
2018-01-26T11:56:10.218Z,5.00
2018-01-26T11:58:37.341Z,5.10
2018-01-26T12:01:03.774Z,5.00
2018-01-26T12:03:30.178Z,5.30
2018-01-26T12:05:56.641Z,5.40
2018-01-26T12:08:23.081Z,5.50
2018-01-26T12:10:49.468Z,5.50
2018-01-26T12:13:15.881Z,5.70
2018-01-26T12:15:42.292Z,5.70
2018-01-26T12:18:09.464Z,6.10
2018-01-26T12:20:35.873Z,6.00
2018-01-26T12:23:02.255Z,6.10
2018-01-26T12:25:28.680Z,6.00
2018-01-26T12:27:55.108Z,5.80
2018-01-26T12:30:21.565Z,5.80
2018-01-26T12:32:48.003Z,5.90
2018-01-26T12:35:14.406Z,6.10
2018-01-26T12:37:40.821Z,6.20
2018-01-26T12:40:07.938Z,6.30
2018-01-26T12:42:34.376Z,6.20
2018-01-26T12:45:00.774Z,6.20
2018-01-26T12:47:27.177Z,6.20
2018-01-26T12:49:54.338Z,6.10
2018-01-26T12:52:21.486Z,6.10
2018-01-26T12:54:48.669Z,6.10
2018-01-26T12:57:15.059Z,6.10
2018-01-26T12:59:42.228Z,6.00
2018-01-26T13:02:09.461Z,5.90
2018-01-26T13:04:36.630Z,5.80
2018-01-26T13:07:03.787Z,5.90
2018-01-26T13:09:30.978Z,5.90
2018-01-26T13:11:57.385Z,5.90
2018-01-26T13:14:23.840Z,6.00
2018-01-26T13:16:50.246Z,6.00
2018-01-26T13:19:16.663Z,6.10
2018-01-26T13:21:43.806Z,6.10
2018-01-26T13:24:10.218Z,6.10
2018-01-26T13:26:36.617Z,6.10
2018-01-26T13:29:03.058Z,6.20
2018-01-26T13:31:29.494Z,6.10
2018-01-26T13:33:55.891Z,6.10
2018-01-26T13:36:23.040Z,6.30
2018-01-26T13:38:50.166Z,6.30
2018-01-26T13:41:16.577Z,6.30
2018-01-26T13:43:43.060Z,6.40
2018-01-26T13:46:10.262Z,6.50
2018-01-26T13:48:36.705Z,6.40
2018-01-26T13:51:03.157Z,6.50
2018-01-26T13:53:29.656Z,6.70
2018-01-26T13:55:56.361Z,6.70
2018-01-26T13:58:23.548Z,6.50
2018-01-26T14:00:49.930Z,6.40
2018-01-26T14:03:16.382Z,6.30
2018-01-26T14:05:43.623Z,6.10
2018-01-26T14:08:10.798Z,6.00
2018-01-26T14:10:37.957Z,5.90
2018-01-26T14:13:04.359Z,5.90
2018-01-26T14:15:30.781Z,5.80
2018-01-26T14:17:57.253Z,5.70
2018-01-26T14:20:24.405Z,5.70
2018-01-26T14:22:51.585Z,5.70
2018-01-26T14:25:18.027Z,5.70
2018-01-26T14:27:44.557Z,5.70
2018-01-26T14:30:11.013Z,5.70
2018-01-26T14:32:37.451Z,5.70
2018-01-26T14:35:03.968Z,5.70
2018-01-26T14:37:30.584Z,5.80
2018-01-26T14:39:57.010Z,5.90
2018-01-26T14:42:23.484Z,6.10
2018-01-26T14:44:49.893Z,6.20
2018-01-26T14:47:16.534Z,6.20
2018-01-26T14:49:43.056Z,6.20
2018-01-26T14:52:09.573Z,6.20
2018-01-26T14:54:36.885Z,6.00
2018-01-26T14:57:03.456Z,5.90
2018-01-26T14:59:29.923Z,5.80
2018-01-26T15:01:56.326Z,5.70
2018-01-26T15:04:23.497Z,5.40
2018-01-26T15:06:50.685Z,5.40
2018-01-26T15:09:17.085Z,5.30
2018-01-26T15:11:44.251Z,5.20
2018-01-26T15:14:10.693Z,5.20
2018-01-26T15:16:37.117Z,5.20
2018-01-26T15:19:03.558Z,5.10
2018-01-26T15:21:29.953Z,5.00
2018-01-26T15:23:57.187Z,4.90
2018-01-26T15:26:23.598Z,4.80
2018-01-26T15:28:50.100Z,4.80
2018-01-26T15:31:17.295Z,4.70
2018-01-26T15:33:43.774Z,4.60
2018-01-26T15:36:10.962Z,4.40
2018-01-26T15:38:37.393Z,4.40
2018-01-26T15:41:03.866Z,4.30
2018-01-26T15:43:30.265Z,4.20
2018-01-26T15:45:56.794Z,4.00
2018-01-26T15:48:23.984Z,3.70
2018-01-26T15:50:50.410Z,3.70
2018-01-26T15:53:16.841Z,3.70
2018-01-26T15:55:43.257Z,3.60
2018-01-26T15:58:09.726Z,3.50
2018-01-26T16:00:36.174Z,3.50
2018-01-26T16:03:02.623Z,3.30
2018-01-26T16:05:29.052Z,3.20
2018-01-26T16:07:55.488Z,3.10
2018-01-26T16:10:21.907Z,3.10
2018-01-26T16:12:48.331Z,3.10
2018-01-26T16:15:14.730Z,3.00
2018-01-26T16:17:41.157Z,2.90
2018-01-26T16:20:07.571Z,2.80
2018-01-26T16:22:34.014Z,2.70
2018-01-26T16:25:01.201Z,2.70
2018-01-26T16:27:27.585Z,2.60
2018-01-26T16:29:54.006Z,2.80
2018-01-26T16:32:20.403Z,2.80
2018-01-26T16:34:46.836Z,2.70
2018-01-26T16:37:13.250Z,2.60
2018-01-26T16:39:39.645Z,2.40
2018-01-26T16:42:06.077Z,2.40
2018-01-26T16:44:32.525Z,2.30
2018-01-26T16:46:58.966Z,2.40
2018-01-26T16:49:26.117Z,2.60
2018-01-26T16:51:53.329Z,2.60
2018-01-26T16:54:19.822Z,2.60
2018-01-26T16:56:46.991Z,2.60
2018-01-26T16:59:13.497Z,2.60
2018-01-26T17:01:40.652Z,2.60
2018-01-26T17:04:07.810Z,2.50
2018-01-26T17:06:34.972Z,2.30
2018-01-26T17:09:01.359Z,2.30
2018-01-26T17:11:27.822Z,2.20
2018-01-26T17:13:54.997Z,2.10
2018-01-26T17:16:21.454Z,2.00
2018-01-26T17:18:47.910Z,2.10
2018-01-26T17:21:14.289Z,2.20
2018-01-26T17:23:41.464Z,2.00
2018-01-26T17:26:07.855Z,1.90
2018-01-26T17:28:35.001Z,1.80
2018-01-26T17:31:01.422Z,1.80
2018-01-26T17:33:27.838Z,1.70
2018-01-26T17:35:54.221Z,1.70
2018-01-26T17:38:20.677Z,1.60
2018-01-26T17:40:47.094Z,1.60
2018-01-26T17:43:14.274Z,1.50
2018-01-26T17:45:40.693Z,1.40
2018-01-26T17:48:07.102Z,1.30
2018-01-26T17:50:34.260Z,1.30
2018-01-26T17:53:01.399Z,1.10
2018-01-26T17:55:27.854Z,1.00
2018-01-26T17:57:55.106Z,1.00
2018-01-26T18:00:22.369Z,0.90
2018-01-26T18:02:48.863Z,0.90
2018-01-26T18:05:15.305Z,0.90
2018-01-26T18:07:41.799Z,0.80
2018-01-26T18:10:08.249Z,0.80
2018-01-26T18:12:34.646Z,0.90
2018-01-26T18:15:01.108Z,0.90
2018-01-26T18:17:27.485Z,0.90
2018-01-26T18:19:54.699Z,0.70
2018-01-26T18:22:21.104Z,0.60
2018-01-26T18:24:47.517Z,0.60
2018-01-26T18:27:14.686Z,0.60
2018-01-26T18:29:41.079Z,0.60
2018-01-26T18:32:07.575Z,0.60
2018-01-26T18:34:34.115Z,0.70
2018-01-26T18:37:00.546Z,0.70
2018-01-26T18:39:27.087Z,0.70
2018-01-26T18:41:53.478Z,0.60
2018-01-26T18:44:19.934Z,0.60
2018-01-26T18:46:46.451Z,0.60
2018-01-26T18:49:13.600Z,0.50
2018-01-26T18:51:40.764Z,0.40
2018-01-26T18:54:07.898Z,0.30
2018-01-26T18:56:34.383Z,0.30
2018-01-26T18:59:00.802Z,0.20
2018-01-26T19:01:27.200Z,0.20
2018-01-26T19:03:53.665Z,0.30
2018-01-26T19:06:20.124Z,0.50
2018-01-26T19:08:46.581Z,0.50
2018-01-26T19:11:12.977Z,0.40
2018-01-26T19:13:39.438Z,0.30
2018-01-26T19:16:05.853Z,0.20
2018-01-26T19:18:32.102Z,0.10
2018-01-26T19:20:58.336Z,0.10
2018-01-26T19:23:24.541Z,0.10
2018-01-26T19:25:50.814Z,0.10
2018-01-26T19:28:17.060Z,0.10
2018-01-26T19:30:44.092Z,0.20
2018-01-26T19:33:10.330Z,0.10
2018-01-26T19:35:37.335Z,0.10
2018-01-26T19:38:03.572Z,0.00
2018-01-26T19:40:29.789Z,0.10
2018-01-26T19:42:56.023Z,0.00
2018-01-26T19:45:22.280Z,0.00
2018-01-26T19:47:48.533Z,-0.10
2018-01-26T19:50:14.767Z,-0.10
2018-01-26T19:52:40.988Z,-0.10
2018-01-26T19:55:07.232Z,-0.10
2018-01-26T19:57:33.475Z,-0.20
2018-01-26T20:00:00.505Z,-0.20
2018-01-26T20:02:26.840Z,-0.30
2018-01-26T20:05:05.409Z,-0.20
2018-01-26T20:07:43.249Z,-0.10
2018-01-26T20:10:09.492Z,0.00
2018-01-26T20:12:42.684Z,-0.10
2018-01-26T20:15:09.721Z,-0.10
2018-01-26T20:17:35.957Z,-0.20
2018-01-26T20:20:02.278Z,-0.20
2018-01-26T20:22:28.497Z,-0.20
2018-01-26T20:24:54.791Z,-0.20
2018-01-26T20:27:21.048Z,-0.20
2018-01-26T20:29:47.323Z,-0.20
2018-01-26T20:32:18.247Z,-0.30
2018-01-26T20:34:44.474Z,-0.30
2018-01-26T20:37:10.704Z,-0.30
2018-01-26T20:39:36.987Z,-0.30
2018-01-26T20:42:04.096Z,-0.20
2018-01-26T20:44:30.384Z,-0.20
2018-01-26T20:46:56.665Z,-0.20
2018-01-26T20:49:23.631Z,-0.20
2018-01-26T20:51:49.936Z,-0.30
2018-01-26T20:54:16.202Z,-0.20
2018-01-26T20:56:42.425Z,-0.30
2018-01-26T20:59:08.684Z,-0.30
2018-01-26T21:01:34.920Z,-0.20
2018-01-26T21:04:01.187Z,-0.20
2018-01-26T21:06:28.178Z,-0.20
2018-01-26T21:08:54.465Z,-0.30
2018-01-26T21:11:20.745Z,-0.20
2018-01-26T21:13:47.165Z,-0.20
2018-01-26T21:16:13.440Z,-0.10
2018-01-26T21:18:40.261Z,-0.10
2018-01-26T21:21:06.819Z,-0.10
2018-01-26T21:23:33.224Z,-0.20
2018-01-26T21:25:59.641Z,-0.20
2018-01-26T21:28:26.074Z,-0.20
2018-01-26T21:30:52.416Z,-0.10
2018-01-26T21:33:18.709Z,-0.10
2018-01-26T21:35:44.937Z,0.00
2018-01-26T21:38:11.184Z,0.10
2018-01-26T21:40:38.228Z,0.20
2018-01-26T21:43:05.207Z,0.10
2018-01-26T21:45:31.458Z,0.00
2018-01-26T21:47:57.690Z,0.10
2018-01-26T21:50:24.365Z,0.00
2018-01-26T21:52:50.597Z,0.00
2018-01-26T21:55:17.590Z,0.00
2018-01-26T21:57:43.880Z,-0.10
2018-01-26T22:00:10.095Z,0.00
2018-01-26T22:02:37.078Z,0.00
2018-01-26T22:05:10.256Z,0.00
2018-01-26T22:07:39.241Z,0.00
2018-01-26T22:10:05.586Z,0.00
2018-01-26T22:12:32.676Z,0.10
2018-01-26T22:14:58.973Z,0.10
2018-01-26T22:17:25.958Z,0.10
2018-01-26T22:19:52.372Z,0.10
2018-01-26T22:22:18.591Z,0.10
2018-01-26T22:24:45.591Z,0.10
2018-01-26T22:27:11.832Z,0.10
2018-01-26T22:29:38.216Z,0.10
2018-01-26T22:32:04.462Z,0.10
2018-01-26T22:34:30.673Z,0.10
2018-01-26T22:36:56.957Z,0.10
2018-01-26T22:39:23.225Z,0.10
2018-01-26T22:41:50.204Z,0.10
2018-01-26T22:44:16.459Z,0.10
2018-01-26T22:46:42.714Z,0.10
2018-01-26T22:49:09.709Z,0.30
2018-01-26T22:51:35.936Z,0.20
2018-01-26T22:54:02.217Z,0.40
2018-01-26T22:56:28.455Z,0.40
2018-01-26T22:58:55.430Z,0.40
2018-01-26T23:01:21.661Z,0.30
2018-01-26T23:03:47.930Z,0.30
2018-01-26T23:06:14.191Z,0.30
2018-01-26T23:08:41.168Z,0.30
2018-01-26T23:11:07.516Z,0.20
2018-01-26T23:13:33.768Z,0.30
2018-01-26T23:15:59.960Z,0.40
2018-01-26T23:18:26.219Z,0.40
2018-01-26T23:20:52.432Z,0.40
2018-01-26T23:23:18.688Z,0.40
2018-01-26T23:25:44.921Z,0.40
2018-01-26T23:28:11.150Z,0.50
2018-01-26T23:30:37.374Z,0.50
2018-01-26T23:33:03.587Z,0.50
2018-01-26T23:35:29.856Z,0.60
2018-01-26T23:37:56.152Z,0.70
2018-01-26T23:40:24.289Z,0.80
2018-01-26T23:42:51.264Z,1.00
2018-01-26T23:45:17.494Z,0.90
2018-01-26T23:47:43.728Z,1.10
2018-01-26T23:50:09.938Z,1.20
2018-01-26T23:52:36.242Z,1.20
2018-01-26T23:55:02.509Z,1.20
2018-01-26T23:57:28.751Z,1.20
2018-01-26T23:59:55.008Z,1.20
